Time;durP1;ratioP1;P1;durP2;ratioP2;P2;SDS_P1;SDS_P2;PMS_P1;PMS_P2;Temp;Humidity;BMP_temperature;BMP_pressure;BME280_temperature;BME280_humidity;BME280_pressure;Samples;Min_cycle;Max_cycle;Signal;HPM_P1;HPM_P2
2022/05/12 00:00:09;;;;;;;9.13;2.90;;;13.80;99.90;;;;;;5022101;28;20669;-41
2022/05/12 00:02:36;;;;;;;5.97;2.80;;;13.70;99.90;;;;;;5021225;28;20665;-40
2022/05/12 00:05:04;;;;;;;9.27;2.93;;;13.80;99.90;;;;;;5012987;28;20715;-45
2022/05/12 00:07:31;;;;;;;8.37;2.50;;;13.80;99.90;;;;;;5023791;28;20203;-40
2022/05/12 00:09:57;;;;;;;8.13;3.40;;;13.80;99.90;;;;;;5021510;28;20582;-44
2022/05/12 00:12:24;;;;;;;8.40;2.90;;;13.80;99.90;;;;;;5018042;28;20307;-41
2022/05/12 00:14:52;;;;;;;11.03;3.40;;;13.90;99.90;;;;;;5024089;28;20620;-45
2022/05/12 00:17:19;;;;;;;7.70;2.97;;;13.90;99.90;;;;;;5003088;28;20195;-42
2022/05/12 00:19:46;;;;;;;10.40;3.63;;;13.90;99.90;;;;;;5024135;28;20196;-44
2022/05/12 00:22:13;;;;;;;7.27;3.23;;;13.90;99.90;;;;;;5008704;28;20919;-44
2022/05/12 00:24:41;;;;;;;6.90;2.87;;;13.80;99.90;;;;;;5032695;28;20208;-45
2022/05/12 00:27:07;;;;;;;10.67;3.27;;;13.80;99.90;;;;;;5015168;28;20212;-44
2022/05/12 00:29:34;;;;;;;9.67;3.20;;;13.80;99.90;;;;;;5023730;28;20226;-44
2022/05/12 00:32:03;;;;;;;7.53;3.20;;;13.80;99.90;;;;;;5022282;28;20558;-45
2022/05/12 00:34:29;;;;;;;9.50;3.30;;;13.80;99.90;;;;;;5022097;28;20952;-43
2022/05/12 00:36:56;;;;;;;13.03;2.93;;;13.70;99.90;;;;;;5018662;28;20224;-43
2022/05/12 00:39:23;;;;;;;9.33;3.50;;;13.70;99.90;;;;;;5015779;28;20220;-45
2022/05/12 00:41:50;;;;;;;8.40;3.37;;;13.70;99.90;;;;;;5017692;28;20212;-43
2022/05/12 00:44:18;;;;;;;7.43;3.03;;;13.70;99.90;;;;;;5019698;28;20195;-42
2022/05/12 00:46:49;;;;;;;10.03;3.50;;;13.70;99.90;;;;;;5020231;28;20247;-46
2022/05/12 00:49:22;;;;;;;6.70;2.80;;;13.70;99.90;;;;;;5019813;28;20301;-42
2022/05/12 00:51:53;;;;;;;7.53;3.13;;;13.70;99.90;;;;;;5026096;28;20211;-47
2022/05/12 00:54:24;;;;;;;5.83;3.13;;;13.70;99.90;;;;;;5004969;28;20198;-43
2022/05/12 00:56:51;;;;;;;7.13;4.00;;;13.70;99.90;;;;;;5021613;28;20646;-45
2022/05/12 00:59:24;;;;;;;7.53;3.70;;;13.70;99.90;;;;;;5019850;28;20948;-41
2022/05/12 01:01:51;;;;;;;9.90;4.20;;;13.70;99.90;;;;;;5023626;28;20207;-44
2022/05/12 01:04:20;;;;;;;8.40;3.10;;;13.70;99.90;;;;;;5019402;28;20192;-43
2022/05/12 01:06:47;;;;;;;10.37;3.23;;;13.80;99.90;;;;;;5023738;28;20251;-41
2022/05/12 01:09:14;;;;;;;8.23;3.20;;;13.70;99.90;;;;;;5007367;28;20208;-43
2022/05/12 01:11:41;;;;;;;5.50;4.00;;;13.70;99.90;;;;;;5026144;28;20200;-44
2022/05/12 01:14:08;;;;;;;8.13;3.83;;;13.80;99.90;;;;;;5012631;28;20211;-42
2022/05/12 01:16:41;;;;;;;8.40;3.47;;;13.80;99.90;;;;;;5022963;28;20636;-43
2022/05/12 01:19:11;;;;;;;6.77;3.33;;;13.70;99.90;;;;;;5013788;28;20203;-44
2022/05/12 01:21:40;;;;;;;5.37;2.73;;;13.80;99.90;;;;;;5016459;28;20210;-44
2022/05/12 01:24:08;;;;;;;7.03;3.87;;;13.80;99.90;;;;;;5009968;28;20219;-44
2022/05/12 01:26:35;;;;;;;10.07;3.30;;;13.80;99.90;;;;;;5033037;28;20271;-47
2022/05/12 01:29:03;;;;;;;7.23;3.60;;;13.80;99.90;;;;;;5013703;28;20204;-46
2022/05/12 01:31:30;;;;;;;7.10;3.50;;;13.90;99.90;;;;;;5021677;28;20192;-43
2022/05/12 01:33:57;;;;;;;4.67;2.93;;;13.90;99.90;;;;;;5021635;28;20199;-46
2022/05/12 01:36:24;;;;;;;4.77;3.20;;;13.90;99.90;;;;;;5020525;28;20996;-41
2022/05/12 01:38:51;;;;;;;4.53;3.70;;;13.90;99.90;;;;;;5022441;28;20207;-42
2022/05/12 01:41:20;;;;;;;7.10;3.30;;;13.90;99.90;;;;;;5014180;28;20274;-46
2022/05/12 01:43:47;;;;;;;8.43;3.20;;;13.90;99.90;;;;;;5023844;28;20686;-45
2022/05/12 01:46:15;;;;;;;5.20;3.00;;;13.90;99.90;;;;;;5012573;28;20232;-40
2022/05/12 01:48:43;;;;;;;4.00;3.00;;;13.90;99.90;;;;;;5022963;28;20200;-40
2022/05/12 01:51:10;;;;;;;4.17;3.30;;;13.90;99.90;;;;;;5020480;28;20277;-45
2022/05/12 01:53:38;;;;;;;4.50;2.83;;;13.80;99.90;;;;;;5027873;28;20572;-42
2022/05/12 01:56:07;;;;;;;3.10;2.80;;;13.80;99.90;;;;;;5008578;28;20223;-44
2022/05/12 01:58:36;;;;;;;5.80;2.97;;;13.80;99.90;;;;;;5028204;28;20234;-47
2022/05/12 02:01:03;;;;;;;4.93;3.37;;;13.80;99.90;;;;;;5014673;28;20207;-41
2022/05/12 02:03:30;;;;;;;7.07;3.03;;;13.80;99.90;;;;;;5021244;28;20196;-43
2022/05/12 02:05:57;;;;;;;5.13;2.83;;;13.90;99.90;;;;;;5022133;28;20254;-46
2022/05/12 02:08:23;;;;;;;6.43;3.20;;;13.90;99.90;;;;;;5019888;28;20200;-45
2022/05/12 02:10:51;;;;;;;4.30;2.90;;;13.80;99.90;;;;;;5008462;28;20558;-43
2022/05/12 02:13:20;;;;;;;5.27;2.90;;;13.80;99.90;;;;;;5030269;28;20192;-45
2022/05/12 02:15:50;;;;;;;9.43;2.70;;;13.80;99.90;;;;;;5016746;28;20236;-48
2022/05/12 02:18:20;;;;;;;5.47;2.80;;;13.80;99.90;;;;;;5019165;28;20192;-45
2022/05/12 02:20:47;;;;;;;7.13;2.83;;;13.80;99.90;;;;;;5022567;28;20211;-43
2022/05/12 02:23:14;;;;;;;3.73;2.57;;;13.90;99.90;;;;;;5025257;28;20208;-42
2022/05/12 02:25:41;;;;;;;4.60;3.10;;;13.80;99.90;;;;;;5008360;28;20227;-41
2022/05/12 02:28:08;;;;;;;4.47;3.00;;;13.70;99.90;;;;;;5027803;28;20203;-41
2022/05/12 02:30:36;;;;;;;4.97;3.00;;;13.60;99.90;;;;;;5026049;28;20728;-43
2022/05/12 02:33:04;;;;;;;4.93;3.20;;;13.50;99.90;;;;;;5018175;28;20208;-43
2022/05/12 02:35:31;;;;;;;6.60;3.30;;;13.40;99.90;;;;;;5024777;28;20288;-40
2022/05/12 02:37:58;;;;;;;4.60;2.93;;;13.30;99.90;;;;;;5025300;28;20278;-41
2022/05/12 02:40:28;;;;;;;8.23;3.90;;;13.20;99.90;;;;;;5024167;28;20900;-46
2022/05/12 02:42:57;;;;;;;8.63;3.37;;;13.20;99.90;;;;;;5017059;28;20215;-42
2022/05/12 02:45:24;;;;;;;9.80;3.67;;;13.10;99.90;;;;;;5029747;28;20216;-43
2022/05/12 02:47:52;;;;;;;4.40;2.30;;;13.00;99.90;;;;;;5019890;28;20595;-43
2022/05/12 02:50:20;;;;;;;2.40;0.80;;;12.90;99.90;;;;;;5022171;28;20219;-41
2022/05/12 02:52:47;;;;;;;1.20;0.93;;;12.70;99.90;;;;;;5032573;28;20553;-42
2022/05/12 02:55:15;;;;;;;1.20;0.77;;;12.50;99.90;;;;;;5025118;28;20203;-42
2022/05/12 02:57:43;;;;;;;1.60;0.77;;;12.50;99.90;;;;;;5011200;28;20684;-45
2022/05/12 03:00:16;;;;;;;1.90;0.67;;;12.40;99.90;;;;;;5024053;28;20625;-44
2022/05/12 03:02:42;;;;;;;1.03;0.80;;;12.30;99.90;;;;;;5016615;28;20208;-42
2022/05/12 03:05:10;;;;;;;2.00;0.93;;;12.30;99.90;;;;;;5022060;28;20215;-48
2022/05/12 03:07:39;;;;;;;1.53;1.03;;;12.20;99.90;;;;;;5025686;28;20353;-40
2022/05/12 03:10:06;;;;;;;1.33;0.70;;;12.20;99.90;;;;;;5019988;28;20216;-43
2022/05/12 03:12:33;;;;;;;1.87;0.97;;;12.10;99.90;;;;;;5024951;28;20203;-47
2022/05/12 03:15:00;;;;;;;1.40;1.20;;;12.10;99.90;;;;;;5010318;28;20582;-41
2022/05/12 03:17:27;;;;;;;1.53;1.00;;;12.10;99.90;;;;;;5019818;28;20216;-41
2022/05/12 03:19:54;;;;;;;3.00;1.30;;;12.00;99.90;;;;;;5025247;28;20192;-41
2022/05/12 03:22:21;;;;;;;2.27;1.30;;;12.00;99.90;;;;;;5024510;28;20856;-40
2022/05/12 03:24:49;;;;;;;2.97;1.30;;;12.00;99.90;;;;;;5028968;28;20204;-41
2022/05/12 03:27:16;;;;;;;1.93;1.10;;;11.90;99.90;;;;;;5021492;28;20952;-44
2022/05/12 03:29:43;;;;;;;2.73;1.40;;;11.90;99.90;;;;;;5010377;28;20212;-43
2022/05/12 03:32:12;;;;;;;1.40;1.30;;;11.90;99.90;;;;;;5016987;28;20200;-42
2022/05/12 03:34:40;;;;;;;3.80;1.17;;;11.90;99.90;;;;;;5021839;28;20204;-46
2022/05/12 03:37:07;;;;;;;2.53;1.07;;;11.90;99.90;;;;;;5023059;28;20199;-43
2022/05/12 03:39:35;;;;;;;2.63;1.40;;;11.80;99.90;;;;;;5023269;28;20189;-45
2022/05/12 03:42:04;;;;;;;2.87;1.50;;;11.80;99.90;;;;;;5022659;28;20421;-43
2022/05/12 03:44:49;;;;;;;2.53;1.60;;;11.80;99.90;;;;;;5021021;28;20258;-43
2022/05/12 03:47:20;;;;;;;1.80;1.30;;;11.80;99.90;;;;;;5029928;28;20760;-42
2022/05/12 03:49:47;;;;;;;4.20;1.50;;;11.80;99.90;;;;;;5016086;28;20204;-41
2022/05/12 03:52:14;;;;;;;3.30;1.63;;;11.80;99.90;;;;;;5028035;28;20616;-46
2022/05/12 03:54:41;;;;;;;3.73;1.60;;;11.80;99.90;;;;;;5023612;28;20822;-44
2022/05/12 03:57:10;;;;;;;1.87;1.73;;;11.80;99.90;;;;;;5023987;28;20203;-46
2022/05/12 03:59:39;;;;;;;2.03;1.40;;;11.80;99.90;;;;;;5014732;28;20204;-41
2022/05/12 04:02:05;;;;;;;6.23;2.20;;;11.80;99.90;;;;;;5015865;28;20210;-42
2022/05/12 04:04:32;;;;;;;1.83;1.70;;;11.80;99.90;;;;;;5016849;28;20765;-41
2022/05/12 04:06:59;;;;;;;3.63;1.40;;;11.80;99.90;;;;;;5022316;28;20301;-40
2022/05/12 04:09:27;;;;;;;4.70;1.80;;;11.80;99.90;;;;;;5020359;28;20664;-44
2022/05/12 04:11:53;;;;;;;3.97;2.30;;;11.70;99.90;;;;;;5018109;28;20216;-40
2022/05/12 04:14:22;;;;;;;4.87;2.03;;;11.80;99.90;;;;;;5020404;28;20211;-40
2022/05/12 04:16:49;;;;;;;5.10;2.07;;;11.80;99.90;;;;;;5008171;28;20254;-44
2022/05/12 04:19:16;;;;;;;4.17;2.40;;;11.80;99.90;;;;;;5020260;28;20191;-46
2022/05/12 04:21:43;;;;;;;9.13;2.43;;;11.70;99.90;;;;;;5017155;28;20325;-43
2022/05/12 04:24:10;;;;;;;5.70;2.10;;;11.70;99.90;;;;;;5016470;28;20210;-41
2022/05/12 04:26:39;;;;;;;7.13;2.60;;;11.70;99.90;;;;;;5025183;28;20226;-45
2022/05/12 04:29:07;;;;;;;8.17;2.70;;;11.70;99.90;;;;;;5028450;28;20202;-44
2022/05/12 04:31:35;;;;;;;5.10;1.80;;;11.70;99.90;;;;;;5007501;28;20261;-44
2022/05/12 04:36:46;;;;;;;5.60;2.50;;;11.70;99.90;;;;;;5013545;28;20224;-43
2022/05/12 04:39:13;;;;;;;8.83;2.50;;;11.70;99.90;;;;;;5016556;28;20211;-43
2022/05/12 04:41:40;;;;;;;6.57;2.80;;;11.70;99.90;;;;;;5023975;28;20690;-41
2022/05/12 04:44:07;;;;;;;6.30;2.63;;;11.80;99.90;;;;;;5020275;28;20184;-42
2022/05/12 04:46:37;;;;;;;4.03;2.70;;;11.80;99.90;;;;;;5023341;28;20228;-47
2022/05/12 04:49:06;;;;;;;8.27;3.07;;;11.80;99.90;;;;;;4989442;28;21427;-47
2022/05/12 04:51:33;;;;;;;7.17;2.60;;;11.80;99.90;;;;;;5007731;28;20219;-45
2022/05/12 04:54:00;;;;;;;7.67;3.30;;;11.80;99.90;;;;;;5015457;28;20208;-49
2022/05/12 04:56:27;;;;;;;8.50;3.40;;;11.80;99.90;;;;;;5012071;28;20220;-46
2022/05/12 04:58:54;;;;;;;5.90;3.03;;;11.80;99.90;;;;;;5021842;28;20680;-48
2022/05/12 05:01:20;;;;;;;6.37;3.37;;;11.90;99.90;;;;;;5019544;28;20733;-48
2022/05/12 05:04:11;;;;;;;7.43;2.70;;;11.90;99.90;;;;;;5010743;28;20239;-48
2022/05/12 05:06:38;;;;;;;8.53;3.37;;;11.90;99.90;;;;;;5004152;28;20215;-50
2022/05/12 05:09:05;;;;;;;7.97;2.80;;;12.00;99.90;;;;;;5017257;28;20204;-46
2022/05/12 05:11:36;;;;;;;5.30;2.77;;;12.00;99.90;;;;;;5008209;28;20346;-47
2022/05/12 05:14:03;;;;;;;4.90;3.00;;;12.00;99.90;;;;;;5023025;28;20234;-47
2022/05/12 05:16:30;;;;;;;6.87;2.57;;;12.00;99.90;;;;;;5018648;28;20208;-47
2022/05/12 05:18:57;;;;;;;4.93;2.70;;;11.90;99.90;;;;;;5009351;28;20219;-51
2022/05/12 05:21:25;;;;;;;5.30;2.23;;;11.90;99.90;;;;;;5014913;28;20195;-51
2022/05/12 05:23:52;;;;;;;6.33;2.40;;;11.90;99.90;;;;;;5011506;28;20285;-52
2022/05/12 05:26:19;;;;;;;4.47;2.60;;;11.90;99.90;;;;;;5004719;28;20237;-48
2022/05/12 05:28:46;;;;;;;4.83;2.50;;;11.90;99.90;;;;;;5018392;28;20863;-48
2022/05/12 05:31:14;;;;;;;5.33;2.37;;;11.90;99.90;;;;;;5013670;28;20239;-46
2022/05/12 05:33:41;;;;;;;5.57;2.77;;;11.90;99.90;;;;;;5001596;28;20199;-45
2022/05/12 05:36:08;;;;;;;5.97;2.70;;;11.90;99.90;;;;;;5032615;28;20227;-50
2022/05/12 05:38:36;;;;;;;6.60;2.20;;;11.90;99.90;;;;;;5009025;28;20196;-46
2022/05/12 05:41:03;;;;;;;4.13;2.30;;;11.90;99.90;;;;;;5012080;28;20200;-51
2022/05/12 05:43:30;;;;;;;10.13;2.73;;;11.90;99.90;;;;;;5017865;28;20314;-49
2022/05/12 05:45:57;;;;;;;7.73;2.53;;;11.90;99.90;;;;;;5023114;28;20231;-50
2022/05/12 05:48:24;;;;;;;8.63;2.40;;;12.00;99.90;;;;;;5001974;28;20302;-48
2022/05/12 05:53:39;;;;;;;6.00;2.00;;;12.10;99.90;;;;;;5006506;28;20259;-47
2022/05/12 05:56:11;;;;;;;5.30;1.80;;;12.20;99.90;;;;;;5022780;28;20218;-49
2022/05/12 05:58:39;;;;;;;8.73;2.50;;;12.30;99.90;;;;;;5013783;28;20202;-47
2022/05/12 06:01:06;;;;;;;6.80;2.33;;;12.30;99.90;;;;;;5024263;28;20199;-50
2022/05/12 06:03:33;;;;;;;6.70;2.17;;;12.40;99.90;;;;;;5008005;28;20216;-48
2022/05/12 06:06:00;;;;;;;7.03;2.33;;;12.40;99.90;;;;;;5022405;28;20299;-48
2022/05/12 06:08:28;;;;;;;9.13;2.13;;;12.40;99.90;;;;;;5020298;28;20211;-47
2022/05/12 06:10:58;;;;;;;3.87;2.27;;;12.40;99.90;;;;;;5012755;28;20583;-47
2022/05/12 06:13:25;;;;;;;5.03;2.63;;;12.40;99.90;;;;;;5007738;28;20231;-44
2022/05/12 06:15:53;;;;;;;8.20;2.37;;;12.50;99.90;;;;;;5021131;28;20255;-44
2022/05/12 06:18:20;;;;;;;10.97;2.57;;;12.50;99.90;;;;;;5009067;28;20917;-48
2022/05/12 06:20:49;;;;;;;6.80;2.50;;;12.60;99.90;;;;;;5029604;28;20296;-47
2022/05/12 06:23:16;;;;;;;3.87;1.80;;;12.60;99.90;;;;;;5027360;28;20223;-47
2022/05/12 06:25:44;;;;;;;6.57;2.37;;;12.70;99.90;;;;;;5012129;28;20234;-48
2022/05/12 06:28:12;;;;;;;4.50;2.20;;;12.60;99.90;;;;;;5015829;28;20219;-50
2022/05/12 06:30:39;;;;;;;7.53;2.33;;;12.70;99.90;;;;;;5023815;28;20202;-45
2022/05/12 06:33:06;;;;;;;7.73;2.97;;;12.80;99.90;;;;;;5025381;28;20196;-50
2022/05/12 06:35:34;;;;;;;4.43;1.90;;;12.90;99.90;;;;;;5017677;28;20219;-48
2022/05/12 06:38:01;;;;;;;7.67;2.37;;;13.00;99.90;;;;;;5026310;28;20200;-47
2022/05/12 06:40:27;;;;;;;6.57;2.30;;;13.00;99.90;;;;;;5016797;28;20946;-51
2022/05/12 06:42:55;;;;;;;6.23;2.20;;;13.00;99.90;;;;;;5008614;28;20200;-48
2022/05/12 06:45:23;;;;;;;5.17;2.17;;;13.00;99.90;;;;;;5022655;28;20602;-49
2022/05/12 06:47:53;;;;;;;5.37;2.33;;;13.10;99.90;;;;;;5025913;28;20204;-49
2022/05/12 06:50:23;;;;;;;7.13;2.23;;;13.10;99.90;;;;;;5009478;28;20215;-49
2022/05/12 06:52:52;;;;;;;5.07;2.00;;;13.20;99.90;;;;;;5031718;28;20220;-47
2022/05/12 06:55:19;;;;;;;5.17;2.17;;;13.30;99.90;;;;;;5019870;28;20231;-51
2022/05/12 06:57:46;;;;;;;5.13;2.30;;;13.40;99.90;;;;;;5015127;28;20211;-45
2022/05/12 07:00:16;;;;;;;3.47;1.93;;;13.30;99.90;;;;;;5013954;28;20254;-51
2022/05/12 07:02:47;;;;;;;5.50;2.10;;;13.30;99.90;;;;;;5024247;28;20188;-45
2022/05/12 07:05:14;;;;;;;5.67;2.03;;;13.40;99.90;;;;;;5008662;28;20223;-49
2022/05/12 07:07:43;;;;;;;5.57;2.30;;;13.50;99.90;;;;;;5025203;28;20192;-45
2022/05/12 07:10:12;;;;;;;7.70;2.00;;;13.60;99.90;;;;;;5030832;28;20235;-48
2022/05/12 07:12:39;;;;;;;4.03;1.80;;;13.70;99.90;;;;;;5017712;28;20227;-47
2022/05/12 07:15:06;;;;;;;6.00;2.33;;;13.60;99.90;;;;;;5016566;28;20236;-49
2022/05/12 07:17:37;;;;;;;4.90;1.97;;;13.60;99.90;;;;;;5021952;28;20200;-49
2022/05/12 07:28:29;;;;;;;5.57;1.60;;;13.60;99.90;;;;;;5009227;28;20721;-49
2022/05/12 07:31:02;;;;;;;2.73;1.30;;;13.60;99.90;;;;;;5025363;28;20200;-53
2022/05/12 07:33:28;;;;;;;5.57;2.30;;;13.60;99.90;;;;;;5020954;28;20876;-54
2022/05/12 07:35:57;;;;;;;4.67;1.60;;;13.70;99.90;;;;;;5010957;28;20701;-55
2022/05/12 07:38:24;;;;;;;3.17;1.47;;;13.80;99.90;;;;;;5034390;28;20191;-52
2022/05/12 07:40:51;;;;;;;5.63;1.60;;;13.90;99.90;;;;;;5024895;28;20208;-48
2022/05/12 07:43:19;;;;;;;4.50;1.70;;;13.90;99.90;;;;;;5015122;28;20681;-49
2022/05/12 07:45:45;;;;;;;2.90;1.63;;;13.90;99.90;;;;;;5017710;28;20234;-47
2022/05/12 07:48:12;;;;;;;1.93;1.30;;;13.90;99.90;;;;;;5020905;28;20200;-51
2022/05/12 07:50:39;;;;;;;2.13;1.20;;;13.90;99.90;;;;;;5009391;28;20393;-50
2022/05/12 07:53:09;;;;;;;3.20;1.60;;;13.90;99.90;;;;;;5031129;28;20219;-49
2022/05/12 07:55:35;;;;;;;3.70;1.40;;;14.00;99.90;;;;;;5021703;28;20306;-49
2022/05/12 07:58:03;;;;;;;3.10;1.47;;;13.90;99.90;;;;;;5019646;28;20203;-52
2022/05/12 08:00:31;;;;;;;9.37;1.73;;;13.90;99.90;;;;;;5015041;28;20539;-49
2022/05/12 08:02:58;;;;;;;6.63;1.27;;;13.90;99.90;;;;;;5024420;28;20200;-48
2022/05/12 08:05:26;;;;;;;3.13;1.13;;;14.10;99.90;;;;;;5020498;28;20216;-53
2022/05/12 08:07:55;;;;;;;5.10;1.50;;;14.20;99.90;;;;;;4993248;28;20584;-47
2022/05/12 08:10:24;;;;;;;3.77;1.40;;;14.20;99.90;;;;;;5015575;28;20192;-52
2022/05/12 08:12:51;;;;;;;3.33;1.43;;;14.20;99.90;;;;;;5018643;28;20227;-48
2022/05/12 08:15:18;;;;;;;4.70;1.93;;;14.40;99.90;;;;;;5017949;28;20226;-50
2022/05/12 08:17:45;;;;;;;1.97;1.17;;;14.50;99.90;;;;;;5018655;28;20206;-54
2022/05/12 08:20:14;;;;;;;2.37;1.17;;;14.60;99.90;;;;;;5025867;28;20694;-53
2022/05/12 08:22:41;;;;;;;4.77;1.50;;;14.70;99.90;;;;;;5013851;28;20232;-49
2022/05/12 08:25:09;;;;;;;3.93;1.67;;;14.80;99.90;;;;;;5027103;28;20637;-49
2022/05/12 08:27:37;;;;;;;3.50;1.97;;;14.80;99.90;;;;;;5014442;28;20211;-49
2022/05/12 08:30:06;;;;;;;2.77;1.37;;;14.80;99.90;;;;;;5021056;28;20204;-46
2022/05/12 08:32:33;;;;;;;2.67;1.37;;;14.90;99.90;;;;;;5013499;28;21012;-50
2022/05/12 08:35:00;;;;;;;2.10;1.50;;;14.90;99.90;;;;;;5023520;28;20196;-48
2022/05/12 08:37:27;;;;;;;3.30;1.60;;;14.90;99.90;;;;;;5019978;28;20196;-48
2022/05/12 08:39:54;;;;;;;3.07;1.20;;;15.00;99.90;;;;;;5014647;28;20211;-47
2022/05/12 08:42:27;;;;;;;1.17;0.90;;;15.20;99.90;;;;;;5014770;28;20214;-53
2022/05/12 08:44:57;;;;;;;2.00;1.30;;;15.20;99.90;;;;;;5020051;28;20200;-46
2022/05/12 08:47:28;;;;;;;2.30;1.10;;;15.20;99.90;;;;;;5008635;28;20208;-50
2022/05/12 08:49:55;;;;;;;2.53;1.50;;;15.30;99.90;;;;;;5028495;28;20208;-46
2022/05/12 08:52:25;;;;;;;4.27;1.47;;;15.30;99.90;;;;;;5021364;28;20219;-50
2022/05/12 08:54:56;;;;;;;3.83;1.40;;;15.20;99.90;;;;;;5012380;28;20212;-46
2022/05/12 08:57:30;;;;;;;2.13;1.00;;;15.20;99.90;;;;;;5012910;28;20211;-50
2022/05/12 09:00:05;;;;;;;3.87;1.57;;;15.30;99.90;;;;;;5022586;28;20207;-47
2022/05/12 09:02:45;;;;;;;3.03;1.27;;;15.40;99.90;;;;;;5012924;28;20204;-45
2022/05/12 09:05:16;;;;;;;2.70;1.30;;;15.40;99.90;;;;;;5020609;28;20255;-47
2022/05/12 09:07:50;;;;;;;3.10;1.17;;;15.40;99.90;;;;;;5021738;28;20195;-47
2022/05/12 09:10:36;;;;;;;4.47;1.60;;;15.40;99.90;;;;;;5006634;28;20202;-50
2022/05/12 09:13:10;;;;;;;10.10;2.33;;;15.30;99.90;;;;;;5029728;28;20243;-50
2022/05/12 09:15:44;;;;;;;2.70;1.17;;;15.30;99.90;;;;;;5015395;28;20219;-45
2022/05/12 09:18:16;;;;;;;1.90;1.10;;;15.40;99.90;;;;;;5021226;28;20203;-49
2022/05/12 09:20:44;;;;;;;4.70;1.40;;;15.50;99.90;;;;;;5018095;28;20302;-51
2022/05/12 09:23:11;;;;;;;2.27;0.93;;;15.50;99.90;;;;;;5026311;28;20824;-47
2022/05/12 09:25:40;;;;;;;5.27;1.67;;;15.60;99.90;;;;;;5002285;28;20231;-46
2022/05/12 09:28:19;;;;;;;1.93;1.23;;;15.70;99.90;;;;;;5028068;28;20204;-51
2022/05/12 09:30:50;;;;;;;2.13;1.03;;;15.90;99.90;;;;;;5019746;28;20281;-50
2022/05/12 09:33:28;;;;;;;3.70;1.20;;;16.00;99.90;;;;;;5017792;28;20274;-52
2022/05/12 09:35:57;;;;;;;4.10;0.83;;;16.10;99.90;;;;;;5016792;28;20247;-52
2022/05/12 09:38:26;;;;;;;3.07;1.13;;;16.00;99.90;;;;;;5017937;28;20196;-46
2022/05/12 09:40:53;;;;;;;2.70;1.17;;;16.00;99.90;;;;;;5013650;28;20203;-51
2022/05/12 09:43:26;;;;;;;7.20;1.00;;;15.90;99.90;;;;;;5029688;28;20282;-52
2022/05/12 09:46:04;;;;;;;5.77;1.57;;;15.90;99.90;;;;;;5017753;28;20306;-52
2022/05/12 09:48:33;;;;;;;1.77;0.97;;;15.90;99.90;;;;;;5013099;28;20207;-50
2022/05/12 09:51:22;;;;;;;2.10;1.13;;;15.90;99.90;;;;;;5019884;28;20196;-46
2022/05/12 09:53:51;;;;;;;3.03;1.00;;;16.00;99.90;;;;;;5019586;28;20266;-48
2022/05/12 09:56:32;;;;;;;2.30;1.00;;;16.10;99.90;;;;;;4995647;28;20220;-52
2022/05/12 09:59:07;;;;;;;2.30;1.03;;;16.40;99.90;;;;;;5024639;28;20215;-48
2022/05/12 10:01:49;;;;;;;2.40;1.00;;;16.60;99.90;;;;;;5009786;28;20215;-47
2022/05/12 10:09:55;;;;;;;1.67;0.87;;;16.70;99.90;;;;;;5017777;28;20723;-50
2022/05/12 10:12:26;;;;;;;4.87;1.10;;;16.70;99.90;;;;;;5005446;28;20345;-53
2022/05/12 10:14:57;;;;;;;3.07;0.73;;;16.80;99.90;;;;;;5021165;28;20204;-45
2022/05/12 10:17:32;;;;;;;5.83;1.23;;;16.70;99.90;;;;;;5019690;28;20214;-46
2022/05/12 10:20:02;;;;;;;3.20;1.37;;;16.60;99.90;;;;;;5016510;28;20204;-51
2022/05/12 10:22:33;;;;;;;2.03;0.80;;;16.60;99.90;;;;;;5019394;28;20188;-60
2022/05/12 10:25:11;;;;;;;3.90;1.13;;;16.40;99.90;;;;;;5019267;28;20570;-55
2022/05/12 10:27:47;;;;;;;3.50;0.97;;;16.40;99.90;;;;;;5009618;28;20277;-54
2022/05/12 10:30:35;;;;;;;1.23;0.70;;;16.50;99.90;;;;;;5022492;28;20192;-53
2022/05/12 10:33:33;;;;;;;2.30;0.83;;;16.70;99.00;;;;;;5017403;28;20231;-55
2022/05/12 10:36:08;;;;;;;2.03;1.30;;;16.90;99.30;;;;;;5013854;28;20352;-52
2022/05/12 10:38:45;;;;;;;1.77;0.90;;;17.00;98.60;;;;;;5028761;28;20574;-50
2022/05/12 10:41:17;;;;;;;6.07;1.13;;;16.80;96.80;;;;;;5020796;28;20208;-55
2022/05/12 10:43:58;;;;;;;1.90;1.10;;;16.70;96.90;;;;;;5009446;28;20204;-48
2022/05/12 10:46:35;;;;;;;2.10;0.80;;;16.90;97.50;;;;;;5012971;28;20226;-49
2022/05/12 10:49:18;;;;;;;1.90;0.63;;;17.10;97.70;;;;;;5025441;28;20196;-53
2022/05/12 10:51:56;;;;;;;2.20;0.73;;;17.20;96.90;;;;;;5012810;28;20220;-47
2022/05/12 10:54:27;;;;;;;3.10;0.73;;;17.10;96.90;;;;;;5022393;28;20188;-50
2022/05/12 10:57:05;;;;;;;5.20;0.70;;;17.00;95.90;;;;;;5033109;28;20235;-51
2022/05/12 10:59:51;;;;;;;4.30;1.00;;;16.90;95.70;;;;;;5026605;28;20345;-50
2022/05/12 11:02:34;;;;;;;1.30;0.70;;;16.70;95.70;;;;;;5015924;28;20188;-48
2022/05/12 11:05:11;;;;;;;1.73;0.70;;;16.60;96.50;;;;;;5021156;28;20200;-50
2022/05/12 11:07:42;;;;;;;3.00;0.70;;;16.70;96.40;;;;;;5006485;28;20204;-48
2022/05/12 11:10:19;;;;;;;1.67;0.80;;;16.90;96.30;;;;;;5029634;28;20204;-49
2022/05/12 11:12:49;;;;;;;3.10;1.03;;;17.10;96.20;;;;;;5015894;28;20216;-51
2022/05/12 11:15:22;;;;;;;2.40;0.87;;;17.20;96.20;;;;;;5003269;28;20302;-47
2022/05/12 11:17:54;;;;;;;2.87;1.00;;;17.30;96.10;;;;;;5020879;28;20207;-50
2022/05/12 11:20:27;;;;;;;2.83;1.03;;;17.40;94.80;;;;;;5013205;28;20310;-48
2022/05/12 11:23:18;;;;;;;5.17;0.73;;;17.60;94.70;;;;;;5016054;28;20220;-50
2022/05/12 11:25:57;;;;;;;2.23;0.57;;;17.70;94.40;;;;;;5016327;28;20302;-51
2022/05/12 11:31:21;;;;;;;1.23;0.90;;;17.70;91.30;;;;;;5001262;28;20218;-50
2022/05/12 11:33:54;;;;;;;3.30;0.70;;;17.60;91.80;;;;;;5032673;28;20266;-54
2022/05/12 11:36:37;;;;;;;1.70;0.87;;;17.70;91.90;;;;;;5014344;28;20352;-53
2022/05/12 11:39:26;;;;;;;1.80;0.77;;;17.80;91.50;;;;;;5019986;28;20609;-53
2022/05/12 11:42:15;;;;;;;2.90;0.77;;;17.90;91.00;;;;;;5029380;28;20227;-55
2022/05/12 11:44:54;;;;;;;2.97;1.20;;;18.00;87.90;;;;;;5025351;28;20204;-50
2022/05/12 11:47:47;;;;;;;3.13;1.03;;;17.90;91.00;;;;;;5008596;28;20215;-49
2022/05/12 11:50:59;;;;;;;2.63;0.70;;;17.90;92.10;;;;;;5021808;28;20211;-54
2022/05/12 11:53:34;;;;;;;3.30;0.90;;;18.00;92.00;;;;;;5006085;28;20372;-50
2022/05/12 11:56:05;;;;;;;2.97;0.90;;;17.90;91.20;;;;;;5018726;28;20219;-53
2022/05/12 11:58:40;;;;;;;1.03;0.70;;;17.70;91.30;;;;;;5013556;28;20282;-53
2022/05/12 12:01:11;;;;;;;1.67;0.90;;;17.60;91.20;;;;;;5002916;28;20218;-50
2022/05/12 12:03:56;;;;;;;2.13;0.80;;;17.70;91.30;;;;;;5013917;28;20192;-50
2022/05/12 12:06:41;;;;;;;3.80;1.10;;;17.90;90.80;;;;;;5020430;28;21312;-52
2022/05/12 12:09:33;;;;;;;1.17;0.97;;;18.10;91.60;;;;;;5018363;28;20203;-52
2022/05/12 12:12:01;;;;;;;3.47;0.83;;;18.10;90.50;;;;;;5018934;28;20227;-48
2022/05/12 12:14:58;;;;;;;1.67;0.90;;;17.90;90.70;;;;;;5025164;28;21045;-50
2022/05/12 12:17:33;;;;;;;2.67;0.90;;;17.90;91.10;;;;;;5006737;28;20960;-48
2022/05/12 12:20:08;;;;;;;1.60;0.87;;;18.10;91.50;;;;;;5021564;28;20215;-49
2022/05/12 12:22:44;;;;;;;3.30;0.90;;;18.30;90.90;;;;;;5023823;28;20199;-48
2022/05/12 12:25:32;;;;;;;3.03;0.90;;;18.50;90.40;;;;;;5014851;28;20235;-48
2022/05/12 12:28:24;;;;;;;2.30;1.00;;;18.70;88.60;;;;;;5024107;28;20551;-53
2022/05/12 12:31:08;;;;;;;2.73;1.03;;;18.70;87.60;;;;;;5013760;28;20208;-46
2022/05/12 12:34:00;;;;;;;2.43;1.10;;;18.90;89.50;;;;;;5009525;28;20692;-47
2022/05/12 12:37:00;;;;;;;3.60;1.53;;;18.90;88.70;;;;;;5012590;28;20564;-51
2022/05/12 12:39:36;;;;;;;5.87;1.53;;;19.00;88.40;;;;;;5020817;28;20192;-47
2022/05/12 12:42:31;;;;;;;3.70;1.00;;;19.20;87.30;;;;;;5012196;28;20207;-51
2022/05/12 12:45:04;;;;;;;2.23;1.00;;;19.30;84.40;;;;;;5025705;28;20212;-51
2022/05/12 12:47:40;;;;;;;2.80;0.80;;;19.40;86.40;;;;;;5005033;28;20339;-50
2022/05/12 12:50:29;;;;;;;2.10;0.60;;;19.40;84.50;;;;;;5020634;28;20207;-51
2022/05/12 12:52:56;;;;;;;1.67;0.67;;;19.50;83.90;;;;;;5018552;28;20219;-48
2022/05/12 12:58:17;;;;;;;4.53;0.70;;;20.30;79.60;;;;;;5021836;28;20231;-51
2022/05/12 13:00:44;;;;;;;1.77;0.77;;;20.10;78.70;;;;;;5023946;28;20656;-50
2022/05/12 13:03:20;;;;;;;2.90;0.83;;;19.90;79.90;;;;;;5007093;28;20211;-54
2022/05/12 13:05:48;;;;;;;2.00;1.00;;;19.70;79.80;;;;;;5007255;28;20230;-50
2022/05/12 13:08:27;;;;;;;1.63;0.90;;;19.80;81.80;;;;;;5025482;28;20970;-47
2022/05/12 13:10:58;;;;;;;1.93;0.80;;;20.10;85.10;;;;;;5016520;28;20291;-48
2022/05/12 13:13:27;;;;;;;0.67;0.50;;;20.40;79.70;;;;;;5014116;28;20220;-47
2022/05/12 13:15:58;;;;;;;4.53;1.00;;;20.10;78.30;;;;;;5012578;28;20593;-48
2022/05/12 13:18:29;;;;;;;3.90;1.10;;;19.80;77.30;;;;;;5003401;28;20204;-53
2022/05/12 13:20:58;;;;;;;2.97;0.90;;;19.30;78.40;;;;;;5018222;28;20207;-52
2022/05/12 13:23:28;;;;;;;2.30;1.00;;;19.30;79.80;;;;;;5000634;28;20211;-52
2022/05/12 13:25:57;;;;;;;1.63;1.20;;;19.40;78.80;;;;;;5022970;28;20223;-47
2022/05/12 13:28:28;;;;;;;2.63;1.00;;;19.30;79.00;;;;;;5021156;28;20199;-52